Time;durP1;ratioP1;P1;durP2;ratioP2;P2;SDS_P1;SDS_P2;PMS_P1;PMS_P2;Temp;Humidity;BMP_temperature;BMP_pressure;BME280_temperature;BME280_humidity;BME280_pressure;Samples;Min_cycle;Max_cycle;Signal;HPM_P1;HPM_P2
2023/12/07 00:01:29;;;;;;;53.47;25.45;;;2.30;99.90;;;2.43;100.00;100836.28;5015457;28;20026;-84
2023/12/07 00:03:55;;;;;;;48.17;24.58;;;2.30;99.90;;;2.46;100.00;100831.56;5028923;28;20045;-83
2023/12/07 00:06:20;;;;;;;48.53;25.58;;;2.30;99.90;;;2.35;100.00;100830.81;5029002;28;20041;-83
2023/12/07 00:08:46;;;;;;;49.53;25.00;;;2.30;99.90;;;2.41;100.00;100832.03;5022991;28;20381;-84
2023/12/07 00:11:12;;;;;;;49.33;24.25;;;2.30;99.90;;;2.48;100.00;100833.06;5024668;28;20054;-83
2023/12/07 00:13:38;;;;;;;42.13;23.33;;;2.30;99.90;;;2.52;100.00;100844.38;5026038;28;20409;-85
2023/12/07 00:16:04;;;;;;;42.97;22.88;;;2.30;99.90;;;2.54;100.00;100840.53;5024888;28;20489;-84
2023/12/07 00:18:30;;;;;;;47.45;24.05;;;2.30;99.90;;;2.49;100.00;100847.41;5021851;28;20478;-84
2023/12/07 00:20:55;;;;;;;46.80;23.95;;;2.30;99.90;;;2.48;100.00;100849.25;5032532;28;20106;-84
2023/12/07 00:23:21;;;;;;;46.92;24.40;;;2.30;99.90;;;2.50;100.00;100846.41;5019349;28;20042;-84
2023/12/07 00:25:47;;;;;;;45.92;23.95;;;2.30;99.90;;;2.38;100.00;100857.41;5014362;28;20048;-83
2023/12/07 00:28:13;;;;;;;46.05;24.23;;;2.30;99.90;;;2.39;100.00;100842.97;5018552;28;20030;-83
2023/12/07 00:30:38;;;;;;;42.80;23.42;;;2.30;99.90;;;2.43;100.00;100849.72;5033817;28;20034;-82
2023/12/07 00:33:04;;;;;;;47.97;23.65;;;2.30;99.90;;;2.46;100.00;100864.72;5022263;28;20037;-83
2023/12/07 00:35:30;;;;;;;41.45;22.83;;;2.30;99.90;;;2.45;100.00;100865.72;5032059;28;20029;-84
2023/12/07 00:37:56;;;;;;;45.20;23.55;;;2.30;99.90;;;2.58;100.00;100871.53;5032107;28;20037;-84
2023/12/07 00:40:23;;;;;;;44.75;23.58;;;2.30;99.90;;;2.53;100.00;100875.72;5022640;28;20025;-84
2023/12/07 00:42:49;;;;;;;46.35;23.63;;;2.30;99.90;;;2.52;100.00;100874.03;5016180;28;20033;-83
2023/12/07 00:45:14;;;;;;;48.22;25.05;;;2.30;99.90;;;2.46;100.00;100863.88;5029930;28;20045;-83
2023/12/07 00:47:40;;;;;;;47.53;23.98;;;2.30;99.90;;;2.55;100.00;100871.00;5032484;28;20036;-83
2023/12/07 00:50:06;;;;;;;46.83;23.42;;;2.30;99.90;;;2.55;100.00;100873.69;5034328;28;20046;-83
2023/12/07 00:52:32;;;;;;;44.78;24.23;;;2.30;99.90;;;2.53;100.00;100886.47;5021360;28;20044;-82
2023/12/07 00:54:58;;;;;;;46.80;25.80;;;2.40;99.90;;;2.61;100.00;100883.84;5031532;28;20380;-83
2023/12/07 00:57:23;;;;;;;45.45;23.77;;;2.30;99.90;;;2.66;100.00;100892.31;5020276;28;20033;-83
2023/12/07 00:59:49;;;;;;;44.92;24.17;;;2.30;99.90;;;2.58;100.00;100884.16;5017128;28;20046;-83
2023/12/07 01:02:15;;;;;;;45.58;23.33;;;2.30;99.90;;;2.59;100.00;100888.53;5022565;28;20402;-82
2023/12/07 01:04:40;;;;;;;44.80;24.25;;;2.30;99.90;;;2.66;100.00;100896.84;5028162;28;20041;-83
2023/12/07 01:07:06;;;;;;;42.75;22.80;;;2.30;99.90;;;2.71;100.00;100897.19;5030973;28;20397;-83
2023/12/07 01:09:33;;;;;;;46.42;23.30;;;2.40;99.90;;;2.65;100.00;100895.16;5027568;28;20459;-83
2023/12/07 01:11:59;;;;;;;46.28;24.15;;;2.40;99.90;;;2.64;100.00;100894.28;5026981;28;20033;-83
2023/12/07 01:14:25;;;;;;;47.20;23.77;;;2.40;99.90;;;2.69;100.00;100902.75;5024634;28;20058;-84
2023/12/07 01:16:50;;;;;;;42.58;23.20;;;2.40;99.90;;;2.71;100.00;100918.75;5025301;28;20041;-84
2023/12/07 01:19:16;;;;;;;50.90;24.50;;;2.40;99.90;;;2.67;100.00;100918.25;5024497;28;20036;-83
2023/12/07 01:21:42;;;;;;;48.80;23.63;;;2.40;99.90;;;2.72;100.00;100921.31;5028148;28;20070;-83
2023/12/07 01:24:09;;;;;;;46.35;24.75;;;2.40;99.90;;;2.75;100.00;100924.69;5030399;28;20034;-83
2023/12/07 01:26:35;;;;;;;50.00;24.60;;;2.40;99.90;;;2.69;100.00;100908.16;5025535;28;20083;-83
2023/12/07 01:29:01;;;;;;;42.38;23.15;;;2.40;99.90;;;2.78;100.00;100927.06;5032996;28;20037;-84
2023/12/07 01:31:27;;;;;;;46.95;23.58;;;2.40;99.90;;;2.78;100.00;100927.06;5033580;28;20041;-83
2023/12/07 01:33:52;;;;;;;48.47;24.63;;;2.40;99.90;;;2.89;100.00;100951.03;5038665;28;20482;-83
2023/12/07 01:36:18;;;;;;;44.15;22.98;;;2.40;99.90;;;2.80;100.00;100946.59;5029237;28;20053;-83
2023/12/07 01:38:44;;;;;;;40.33;22.80;;;2.40;99.90;;;2.91;100.00;100949.03;5024384;28;20033;-84
2023/12/07 01:41:10;;;;;;;46.45;24.15;;;2.50;99.90;;;2.81;100.00;100953.69;5020057;28;20623;-82
2023/12/07 01:43:36;;;;;;;41.22;21.88;;;2.50;99.90;;;2.87;100.00;100951.22;5020951;28;20037;-83
2023/12/07 01:46:03;;;;;;;42.55;22.80;;;2.50;99.90;;;2.92;100.00;100950.75;5020544;28;20185;-82
2023/12/07 01:48:29;;;;;;;46.72;24.27;;;2.50;99.90;;;2.92;100.00;100958.81;5026475;28;20057;-83
2023/12/07 01:50:57;;;;;;;42.40;23.38;;;2.50;99.90;;;2.93;100.00;100962.34;5029878;28;20048;-83
2023/12/07 01:53:26;;;;;;;45.10;23.48;;;2.50;99.90;;;2.97;100.00;100961.03;5021846;28;20477;-83
2023/12/07 01:55:53;;;;;;;41.92;22.38;;;2.50;99.90;;;2.99;100.00;100964.41;5022220;28;20588;-83
2023/12/07 01:58:19;;;;;;;44.97;24.00;;;2.50;99.90;;;2.93;100.00;100965.91;5029284;28;20120;-82
2023/12/07 02:00:46;;;;;;;41.85;22.23;;;2.50;99.90;;;2.92;100.00;100971.44;5024116;28;20045;-83
2023/12/07 02:03:13;;;;;;;41.47;23.13;;;2.50;99.90;;;2.94;100.00;100969.44;5025332;28;20099;-83
2023/12/07 02:05:47;;;;;;;40.33;22.70;;;2.50;99.90;;;3.02;100.00;100974.88;5029753;28;20037;-84
2023/12/07 02:08:13;;;;;;;44.58;22.17;;;2.60;99.90;;;2.97;100.00;100974.50;5020986;28;20042;-83
2023/12/07 02:10:39;;;;;;;41.53;22.02;;;2.50;99.90;;;2.97;100.00;100975.38;5031072;28;20041;-83
2023/12/07 02:13:06;;;;;;;39.55;22.05;;;2.50;99.90;;;2.92;100.00;100977.69;5013164;28;20116;-82
2023/12/07 02:15:32;;;;;;;49.63;22.80;;;2.60;99.90;;;2.98;100.00;100985.13;5029285;28;20088;-83
2023/12/07 02:18:34;;;;;;;42.50;21.15;;;2.60;99.90;;;3.02;100.00;100985.66;5024704;28;20072;-83
2023/12/07 02:21:18;;;;;;;38.33;21.77;;;2.60;99.90;;;3.10;100.00;100990.25;5020632;28;20030;-83
2023/12/07 02:23:46;;;;;;;43.60;22.95;;;2.50;99.90;;;3.01;100.00;100982.13;5014921;28;20060;-83
2023/12/07 02:26:18;;;;;;;43.00;22.35;;;2.50;99.90;;;3.04;100.00;100982.81;5030703;28;20039;-84
2023/12/07 02:28:44;;;;;;;36.97;20.65;;;2.50;99.90;;;3.02;100.00;100985.66;5020241;28;20030;-84
2023/12/07 02:31:09;;;;;;;35.22;20.60;;;2.60;99.90;;;3.19;100.00;101000.09;5025121;28;20042;-83
2023/12/07 02:33:35;;;;;;;39.13;21.15;;;2.60;99.90;;;3.15;100.00;100998.69;5018774;28;20038;-84
2023/12/07 02:36:01;;;;;;;36.08;20.77;;;2.60;99.90;;;3.15;100.00;100998.69;5027395;28;20053;-82
2023/12/07 02:38:29;;;;;;;36.03;20.35;;;2.60;99.90;;;3.16;100.00;101003.94;5029913;28;20045;-84
2023/12/07 02:40:56;;;;;;;36.97;20.48;;;2.60;99.90;;;3.10;100.00;101001.03;5016670;28;20034;-84
2023/12/07 02:43:22;;;;;;;37.58;20.92;;;2.60;99.90;;;3.11;100.00;100994.63;5027477;28;20068;-83
2023/12/07 02:45:48;;;;;;;33.67;20.23;;;2.60;99.90;;;3.10;100.00;101001.91;5018387;28;20065;-84
2023/12/07 02:48:14;;;;;;;36.78;20.13;;;2.50;99.90;;;3.16;100.00;101016.56;5021427;28;20088;-83
2023/12/07 02:50:40;;;;;;;35.25;20.42;;;2.50;99.90;;;3.22;100.00;101009.72;5021799;28;20045;-83
2023/12/07 02:53:06;;;;;;;34.13;19.10;;;2.50;99.90;;;3.31;100.00;101009.59;5025163;28;20038;-83
2023/12/07 02:55:31;;;;;;;35.70;20.15;;;2.50;99.90;;;3.28;100.00;101012.63;5031086;28;20037;-83
2023/12/07 02:57:57;;;;;;;36.58;20.25;;;2.60;99.90;;;3.02;100.00;101000.00;5031725;28;20049;-83
2023/12/07 03:00:23;;;;;;;35.60;20.15;;;2.60;99.90;;;3.15;100.00;101009.50;5023149;28;20041;-83
2023/12/07 03:02:50;;;;;;;35.78;19.70;;;2.60;99.90;;;3.02;100.00;101012.59;5025768;28;20445;-83
2023/12/07 03:05:16;;;;;;;33.70;19.20;;;2.60;99.90;;;3.11;100.00;101013.50;5028195;28;20085;-83
2023/12/07 03:07:41;;;;;;;34.28;19.48;;;2.60;99.90;;;3.17;100.00;101013.72;5037221;28;20037;-83
2023/12/07 03:10:07;;;;;;;33.47;18.83;;;2.50;99.90;;;3.15;100.00;101009.50;5022388;28;20046;-83
2023/12/07 03:12:33;;;;;;;35.85;19.75;;;2.60;99.90;;;3.16;100.00;101017.44;5029766;28;20029;-83
2023/12/07 03:14:59;;;;;;;32.47;18.98;;;2.50;99.90;;;3.10;100.00;101009.13;5040826;28;20499;-84
2023/12/07 03:17:24;;;;;;;33.45;17.85;;;2.50;99.90;;;3.20;100.00;101022.50;5030185;28;20044;-84
2023/12/07 03:19:50;;;;;;;34.65;18.80;;;2.50;99.90;;;3.17;100.00;101019.13;5033967;28;20124;-83
2023/12/07 03:22:16;;;;;;;34.95;19.83;;;2.50;99.90;;;3.25;100.00;101023.72;5034559;28;20033;-83
2023/12/07 03:24:50;;;;;;;30.90;18.65;;;2.50;99.90;;;3.28;100.00;101023.41;5035081;28;20052;-83
2023/12/07 03:27:15;;;;;;;32.03;18.73;;;2.40;99.90;;;3.21;100.00;101022.34;5033010;28;20037;-83
2023/12/07 03:29:41;;;;;;;31.48;18.55;;;2.50;99.90;;;3.22;100.00;101015.97;5023084;28;20038;-83
2023/12/07 03:32:07;;;;;;;31.48;18.70;;;2.50;99.90;;;3.11;100.00;101019.75;5024470;28;20060;-82
2023/12/07 03:34:32;;;;;;;32.08;18.25;;;2.50;99.90;;;3.17;100.00;101024.53;5023898;28;20103;-83
2023/12/07 03:36:58;;;;;;;34.83;18.67;;;2.50;99.90;;;3.23;100.00;101031.13;5003410;28;20037;-83
2023/12/07 03:39:25;;;;;;;33.33;18.42;;;2.50;99.90;;;3.24;100.00;101029.25;5029292;28;20037;-83
2023/12/07 03:41:52;;;;;;;28.43;17.80;;;2.50;99.90;;;3.19;100.00;101032.47;5043312;28;20025;-83
2023/12/07 03:44:17;;;;;;;31.13;18.02;;;2.50;99.90;;;3.24;100.00;101027.44;5027461;28;20290;-83
2023/12/07 03:46:43;;;;;;;30.02;17.80;;;2.50;99.90;;;3.14;100.00;101037.47;5040589;28;20041;-83
2023/12/07 03:49:09;;;;;;;32.38;18.88;;;2.50;99.90;;;3.11;100.00;101045.88;5026036;28;20124;-83
2023/12/07 03:51:36;;;;;;;33.15;18.83;;;2.50;99.90;;;3.15;100.00;101039.16;5035149;28;20080;-83
2023/12/07 03:54:05;;;;;;;30.73;17.67;;;2.50;99.90;;;3.14;100.00;101029.38;5046297;28;20040;-83
2023/12/07 03:56:33;;;;;;;30.38;17.80;;;2.50;99.90;;;3.21;100.00;101046.63;5032372;28;20037;-83
2023/12/07 03:58:58;;;;;;;32.75;17.80;;;2.50;99.90;;;3.08;100.00;101046.19;5026830;28;20045;-83
2023/12/07 04:01:27;;;;;;;30.65;17.92;;;2.50;99.90;;;3.16;100.00;101054.31;5024766;28;20095;-83
2023/12/07 04:03:55;;;;;;;29.20;16.88;;;2.50;99.90;;;3.15;100.00;101044.53;5016046;28;20029;-83
2023/12/07 04:06:22;;;;;;;31.17;18.17;;;2.50;99.90;;;3.09;100.00;101058.66;5027778;28;20033;-83
2023/12/07 04:08:48;;;;;;;28.55;17.25;;;2.50;99.90;;;3.05;100.00;101062.69;5025602;28;20029;-83
2023/12/07 04:11:15;;;;;;;33.53;18.42;;;2.60;99.90;;;2.98;100.00;101057.91;5038297;28;20045;-83
2023/12/07 04:13:42;;;;;;;28.52;18.38;;;2.60;99.90;;;3.01;100.00;101054.91;5035023;28;20037;-83
2023/12/07 04:16:12;;;;;;;29.87;17.77;;;2.70;99.90;;;3.17;100.00;101061.41;5035878;28;20052;-82
2023/12/07 04:18:37;;;;;;;31.67;18.42;;;2.60;99.90;;;3.11;100.00;101048.56;5021512;28;20488;-83
2023/12/07 04:21:05;;;;;;;30.45;18.70;;;2.60;99.90;;;3.13;100.00;101062.72;5025754;28;20171;-83
2023/12/07 04:23:31;;;;;;;31.13;17.65;;;2.60;99.90;;;3.22;100.00;101060.94;5032007;28;20073;-84
2023/12/07 04:25:56;;;;;;;31.45;17.13;;;2.60;99.90;;;3.21;100.00;101067.34;5031045;28;20034;-83
2023/12/07 04:28:22;;;;;;;28.08;17.40;;;2.60;99.90;;;3.27;100.00;101067.56;5022857;28;20082;-83
2023/12/07 04:30:48;;;;;;;31.13;17.35;;;2.60;99.90;;;3.31;100.00;101066.22;5027308;28;20044;-83
2023/12/07 04:33:13;;;;;;;31.17;18.17;;;2.60;99.90;;;3.21;100.00;101062.81;5028534;28;20087;-83
2023/12/07 04:35:39;;;;;;;30.17;18.02;;;2.60;99.90;;;3.26;100.00;101062.31;5021611;28;20045;-83
2023/12/07 04:38:05;;;;;;;29.55;17.25;;;2.60;99.90;;;3.30;100.00;101055.59;5017566;28;20044;-83
2023/12/07 04:40:31;;;;;;;32.65;18.25;;;2.60;99.90;;;3.31;100.00;101074.31;5024415;28;20033;-83
2023/12/07 04:42:56;;;;;;;29.58;18.52;;;2.60;99.90;;;3.42;100.00;101069.66;5024055;28;20021;-83
2023/12/07 04:45:23;;;;;;;29.73;17.60;;;2.60;99.90;;;3.36;100.00;101068.47;5018730;28;20517;-83
2023/12/07 04:47:48;;;;;;;27.98;16.65;;;2.50;99.90;;;3.27;100.00;101078.34;5025888;28;20160;-83
2023/12/07 04:50:14;;;;;;;30.75;18.35;;;2.60;99.90;;;3.26;100.00;101068.56;5030349;28;20142;-83
2023/12/07 04:52:40;;;;;;;26.90;16.35;;;2.50;99.90;;;3.28;100.00;101071.09;5030654;28;20038;-83
2023/12/07 04:55:07;;;;;;;30.10;17.27;;;2.50;99.90;;;3.34;100.00;101075.88;5013491;28;20053;-83
2023/12/07 04:57:34;;;;;;;29.55;17.23;;;2.50;99.90;;;3.36;100.00;101081.09;5016928;28;20042;-83
2023/12/07 05:00:05;;;;;;;25.05;15.48;;;2.50;99.90;;;3.36;100.00;101068.47;5025249;28;20042;-83
2023/12/07 05:02:31;;;;;;;27.00;15.77;;;2.50;99.90;;;3.28;100.00;101074.66;5043105;28;20044;-83
2023/12/07 05:04:57;;;;;;;27.33;16.63;;;2.50;99.90;;;3.36;100.00;101081.09;5025460;28;20037;-83
2023/12/07 05:07:23;;;;;;;25.13;15.82;;;2.50;99.90;;;3.23;100.00;101076.97;5026219;28;20034;-83
2023/12/07 05:09:50;;;;;;;26.83;15.82;;;2.50;99.90;;;3.24;100.00;101078.66;5019321;28;20045;-83
2023/12/07 05:12:17;;;;;;;25.42;16.35;;;2.50;99.90;;;3.26;100.00;101071.25;5022217;28;20478;-83
2023/12/07 05:14:43;;;;;;;26.70;15.52;;;2.50;99.90;;;3.18;100.00;101079.28;5032583;28;20044;-83
2023/12/07 05:17:09;;;;;;;26.88;16.13;;;2.50;99.90;;;3.19;100.00;101081.00;5022078;28;20042;-83
2023/12/07 05:19:34;;;;;;;29.27;15.98;;;2.50;99.90;;;3.17;100.00;101080.28;5019694;28;20382;-83
2023/12/07 05:22:00;;;;;;;27.45;15.63;;;2.50;99.90;;;3.18;100.00;101071.19;5034288;28;20095;-84
2023/12/07 05:24:26;;;;;;;27.27;15.88;;;2.50;99.90;;;3.12;100.00;101079.91;5030687;28;20083;-83
2023/12/07 05:26:51;;;;;;;22.77;15.23;;;2.50;99.90;;;3.15;100.00;101079.59;5021944;28;20037;-82
2023/12/07 05:29:17;;;;;;;27.08;16.20;;;2.50;99.90;;;3.11;100.00;101076.38;5031431;28;20469;-83
2023/12/07 05:31:43;;;;;;;26.33;15.48;;;2.50;99.90;;;3.17;100.00;101077.59;5031805;28;20045;-83
2023/12/07 05:34:09;;;;;;;25.20;15.43;;;2.50;99.90;;;3.11;100.00;101072.81;5023849;28;20037;-83
2023/12/07 05:36:35;;;;;;;26.55;16.48;;;2.50;99.90;;;3.20;100.00;101077.28;5024458;28;20034;-83
2023/12/07 05:39:01;;;;;;;27.40;16.20;;;2.50;99.90;;;3.19;100.00;101077.44;5024751;28;20088;-83
2023/12/07 05:41:26;;;;;;;26.77;15.05;;;2.60;99.90;;;3.27;100.00;101081.03;5025495;28;20040;-83
2023/12/07 05:43:53;;;;;;;25.45;15.43;;;2.50;99.90;;;3.23;100.00;101076.97;5027076;28;20038;-84
2023/12/07 05:46:19;;;;;;;23.52;14.68;;;2.50;99.90;;;3.14;100.00;101081.47;5037489;28;20045;-86
2023/12/07 05:48:46;;;;;;;22.15;13.75;;;2.60;99.90;;;3.19;100.00;101078.31;5022671;28;20069;-83
2023/12/07 05:51:17;;;;;;;23.67;14.68;;;2.60;99.90;;;3.04;100.00;101067.22;5020057;28;20235;-85
2023/12/07 05:53:44;;;;;;;22.00;13.82;;;2.60;99.90;;;3.16;100.00;101078.59;5027376;28;20164;-84
2023/12/07 05:56:13;;;;;;;26.07;14.23;;;2.60;99.90;;;3.18;100.00;101084.66;5022652;28;20025;-84
2023/12/07 05:58:39;;;;;;;25.85;14.73;;;2.60;99.90;;;3.12;100.00;101070.00;5030543;28;20306;-83
2023/12/07 06:01:05;;;;;;;22.80;13.60;;;2.60;99.90;;;3.08;100.00;101079.41;5017595;28;20048;-82
2023/12/07 06:03:32;;;;;;;24.73;14.57;;;2.60;99.90;;;3.20;100.00;101085.38;5029000;28;20477;-85
2023/12/07 06:05:57;;;;;;;23.20;13.95;;;2.60;99.90;;;3.15;100.00;101077.75;5017056;28;20049;-83
2023/12/07 06:08:23;;;;;;;22.38;14.25;;;2.60;99.90;;;3.17;100.00;101077.59;5022182;28;20037;-85
2023/12/07 06:10:49;;;;;;;22.05;13.48;;;2.60;99.90;;;3.14;100.00;101086.84;5026805;28;20045;-83
2023/12/07 06:13:14;;;;;;;25.52;14.85;;;2.60;99.90;;;3.11;100.00;101079.09;5023367;28;20037;-82
2023/12/07 06:15:41;;;;;;;24.73;13.63;;;2.60;99.90;;;3.01;100.00;101089.09;5021237;28;20041;-82
2023/12/07 06:18:06;;;;;;;22.50;13.65;;;2.60;99.90;;;2.86;100.00;101091.50;5019420;28;20117;-82
2023/12/07 06:20:33;;;;;;;24.42;14.70;;;2.60;99.90;;;2.90;100.00;101089.34;5029947;28;20367;-82
2023/12/07 06:22:59;;;;;;;21.23;14.10;;;2.60;99.90;;;2.94;100.00;101088.91;4996890;28;20042;-82
2023/12/07 06:25:25;;;;;;;23.83;14.68;;;2.60;99.90;;;3.04;100.00;101104.13;5019038;28;20103;-83
2023/12/07 06:27:51;;;;;;;24.17;14.25;;;2.50;99.90;;;2.93;100.00;101097.97;5030421;28;20084;-82
2023/12/07 06:30:20;;;;;;;25.38;14.27;;;2.50;99.90;;;2.94;100.00;101105.06;5036844;28;20108;-82
2023/12/07 06:32:46;;;;;;;24.95;14.02;;;2.50;99.90;;;2.88;100.00;101100.28;5031082;28;20120;-81
2023/12/07 06:35:15;;;;;;;21.80;13.75;;;2.50;99.90;;;2.93;100.00;101114.16;5017270;28;20120;-82
2023/12/07 06:37:42;;;;;;;24.33;14.85;;;2.50;99.90;;;2.88;100.00;101119.13;5023268;28;20029;-82
2023/12/07 06:40:09;;;;;;;21.67;14.10;;;2.50;99.90;;;2.83;100.00;101110.69;5026041;28;20621;-81
2023/12/07 06:42:36;;;;;;;26.45;15.98;;;2.50;99.90;;;2.91;100.00;101121.53;5024258;28;20100;-83
2023/12/07 06:45:02;;;;;;;26.38;14.65;;;2.40;99.90;;;2.78;100.00;101100.34;5027704;28;20030;-83
2023/12/07 06:47:28;;;;;;;25.38;16.00;;;2.40;99.90;;;2.82;100.00;101111.69;4999384;28;20037;-83
2023/12/07 06:49:55;;;;;;;24.20;14.73;;;2.40;99.90;;;3.01;100.00;101119.59;5018118;28;20045;-84
2023/12/07 06:52:21;;;;;;;24.80;15.50;;;2.40;99.90;;;2.98;100.00;101128.00;5035956;28;20034;-84
2023/12/07 06:54:47;;;;;;;28.95;15.90;;;2.40;99.90;;;2.97;100.00;101120.06;5030725;28;20037;-84
2023/12/07 06:57:13;;;;;;;23.90;14.40;;;2.50;99.90;;;2.86;100.00;101123.84;5034113;28;20426;-84
2023/12/07 06:59:40;;;;;;;24.40;15.05;;;2.40;99.90;;;2.93;100.00;101122.25;5025801;28;20123;-84
2023/12/07 07:02:06;;;;;;;26.20;15.13;;;2.40;99.90;;;2.93;100.00;101129.47;5026514;28;20077;-86
2023/12/07 07:04:32;;;;;;;26.83;15.68;;;2.40;99.90;;;2.90;100.00;101141.38;5026789;28;20069;-83
2023/12/07 07:06:58;;;;;;;27.90;15.35;;;2.40;99.90;;;2.84;100.00;101134.78;5033992;28;20042;-83
2023/12/07 07:09:23;;;;;;;26.05;15.82;;;2.40;99.90;;;2.93;100.00;101140.25;5033646;28;20060;-84
2023/12/07 07:11:50;;;;;;;27.08;16.10;;;2.40;99.90;;;2.86;100.00;101140.00;5024839;28;20052;-84
2023/12/07 07:14:16;;;;;;;27.88;15.90;;;2.40;99.90;;;2.75;100.00;101133.00;5044165;28;20087;-84
2023/12/07 07:16:42;;;;;;;25.20;14.93;;;2.40;99.90;;;2.83;100.00;101134.94;5037432;28;20476;-84
2023/12/07 07:19:08;;;;;;;26.92;16.25;;;2.40;99.90;;;2.89;100.00;101134.31;5020741;28;20049;-84
2023/12/07 07:21:34;;;;;;;28.25;16.15;;;2.40;99.90;;;2.94;100.00;101139.25;5040411;28;20082;-84
2023/12/07 07:24:00;;;;;;;30.90;16.38;;;2.40;99.90;;;2.93;100.00;101137.56;5023830;28;20109;-84
2023/12/07 07:26:25;;;;;;;25.70;15.77;;;2.40;99.90;;;2.76;100.00;101137.38;5032551;28;20098;-83
2023/12/07 07:28:52;;;;;;;31.35;17.02;;;2.40;99.90;;;2.98;100.00;101140.63;5031570;28;20029;-83
2023/12/07 07:31:18;;;;;;;34.28;17.10;;;2.40;99.90;;;2.97;100.00;101138.94;5029179;28;20082;-83
2023/12/07 07:33:46;;;;;;;31.15;17.65;;;2.40;99.90;;;3.03;100.00;101141.00;5027981;28;20041;-84
2023/12/07 07:36:14;;;;;;;;;;;2.40;99.90;;;2.98;100.00;101143.31;5030591;28;20494;-82
2023/12/07 07:38:41;;;;;;;30.63;15.85;;;2.40;99.90;;;2.95;100.00;101154.41;5025886;28;20389;-83
2023/12/07 07:41:06;;;;;;;33.90;17.52;;;2.40;99.90;;;2.83;100.00;101151.09;5018456;28;20042;-84
2023/12/07 07:43:34;;;;;;;32.75;18.73;;;2.40;99.90;;;2.79;100.00;101144.34;5028928;28;20382;-83
2023/12/07 07:46:00;;;;;;;34.50;19.15;;;2.40;99.90;;;2.76;100.00;101141.94;5031124;28;20053;-81
2023/12/07 07:48:26;;;;;;;34.28;19.10;;;2.40;99.90;;;2.87;100.00;101157.88;5024253;28;20034;-83
2023/12/07 07:50:52;;;;;;;40.22;19.10;;;2.40;99.90;;;2.88;100.00;101154.19;5029823;28;20037;-81
2023/12/07 07:53:17;;;;;;;34.63;19.95;;;2.50;99.90;;;2.78;100.00;101153.41;5026575;28;20038;-81
2023/12/07 07:55:43;;;;;;;36.70;19.13;;;2.50;99.90;;;2.83;100.00;101151.09;5040384;28;20074;-84
2023/12/07 07:58:09;;;;;;;39.67;19.85;;;2.50;99.90;;;2.86;100.00;101151.66;5034390;28;20064;-81
2023/12/07 08:00:35;;;;;;;36.53;19.15;;;2.50;99.90;;;2.86;100.00;101150.78;5035438;28;20062;-81
2023/12/07 08:03:00;;;;;;;34.63;19.75;;;2.50;99.90;;;2.97;100.00;101161.38;5032444;28;20033;-81
2023/12/07 08:05:26;;;;;;;34.70;18.25;;;2.50;99.90;;;2.92;100.00;101160.13;5036308;28;20095;-80
2023/12/07 08:07:52;;;;;;;33.75;18.98;;;2.50;99.90;;;2.97;100.00;101169.44;5029505;28;20120;-82
2023/12/07 08:10:18;;;;;;;35.92;19.55;;;2.60;99.90;;;3.06;100.00;101151.50;5031000;28;20070;-81
2023/12/07 08:12:43;;;;;;;37.83;19.27;;;2.60;99.90;;;2.99;100.00;101174.66;5029206;28;20033;-83
2023/12/07 08:15:10;;;;;;;36.42;18.58;;;2.60;99.90;;;3.13;100.00;101170.59;5030331;28;20033;-80
2023/12/07 08:17:42;;;;;;;34.83;20.30;;;2.60;99.90;;;3.08;100.00;101173.75;4997086;28;20043;-81
2023/12/07 08:20:15;;;;;;;37.55;20.10;;;2.60;99.90;;;3.14;100.00;101161.50;5019140;28;20358;-80
2023/12/07 08:22:41;;;;;;;31.30;18.90;;;2.70;99.90;;;3.18;100.00;101170.97;5022529;28;20112;-80
2023/12/07 08:25:09;;;;;;;33.28;17.88;;;2.70;99.90;;;3.31;100.00;101170.56;5019715;28;20046;-81
2023/12/07 08:27:36;;;;;;;31.33;19.15;;;2.80;99.90;;;3.37;100.00;101169.97;5028055;28;20029;-82
2023/12/07 08:30:04;;;;;;;32.75;17.92;;;2.80;99.90;;;3.31;100.00;101171.41;5032422;28;20053;-82
2023/12/07 08:32:29;;;;;;;31.47;18.53;;;2.90;99.90;;;3.27;100.00;101175.44;5020837;28;20042;-81
2023/12/07 08:34:55;;;;;;;30.80;18.00;;;2.90;99.90;;;3.48;100.00;101174.25;5021213;28;20301;-81
2023/12/07 08:37:21;;;;;;;31.17;16.92;;;2.90;99.90;;;3.59;100.00;101168.59;5009662;28;20034;-81
2023/12/07 08:39:47;;;;;;;35.00;19.42;;;3.00;99.90;;;3.57;100.00;101177.84;5016654;28;20038;-81
2023/12/07 08:42:12;;;;;;;34.50;17.50;;;3.00;99.90;;;3.54;100.00;101178.16;5033119;28;20044;-82
2023/12/07 08:44:38;;;;;;;31.92;16.48;;;3.00;99.90;;;3.49;100.00;101173.25;5041027;28;20052;-82
2023/12/07 08:47:05;;;;;;;29.88;17.75;;;3.10;99.90;;;3.66;100.00;101182.31;5041790;28;20041;-82
2023/12/07 08:49:31;;;;;;;29.23;17.40;;;3.10;99.90;;;3.64;100.00;101181.63;5041643;28;20443;-82
2023/12/07 08:51:58;;;;;;;31.00;17.55;;;3.10;99.90;;;3.81;100.00;101173.63;5025750;28;20998;-82
2023/12/07 08:54:23;;;;;;;31.88;17.30;;;3.20;99.90;;;3.78;100.00;101172.09;5030176;28;20060;-82
2023/12/07 08:56:49;;;;;;;29.92;17.85;;;3.20;99.90;;;3.83;100.00;101169.75;5031185;28;20433;-82
2023/12/07 08:59:15;;;;;;;31.90;17.10;;;3.30;99.90;;;3.85;100.00;101183.13;5042119;28;20562;-82
2023/12/07 09:01:41;;;;;;;27.92;17.27;;;3.30;99.90;;;3.77;100.00;101181.19;5049234;28;20040;-82
2023/12/07 09:04:06;;;;;;;31.58;17.85;;;3.30;99.90;;;3.73;100.00;101186.06;5039690;28;20030;-82
2023/12/07 09:06:32;;;;;;;32.55;17.85;;;3.30;99.90;;;3.83;100.00;101194.06;5023986;28;20097;-82
2023/12/07 09:08:58;;;;;;;32.55;19.58;;;3.20;99.90;;;3.59;100.00;101190.19;5036440;28;20046;-82
2023/12/07 09:11:24;;;;;;;30.15;17.05;;;3.20;99.90;;;3.56;100.00;101195.91;5029608;28;20042;-83
2023/12/07 09:13:50;;;;;;;32.13;17.45;;;3.20;99.90;;;3.69;100.00;101189.22;5037368;28;20029;-82
2023/12/07 09:16:15;;;;;;;32.80;18.85;;;3.30;99.90;;;3.57;100.00;101186.78;5039400;28;20037;-82
2023/12/07 09:18:42;;;;;;;32.38;18.88;;;3.30;99.90;;;3.79;100.00;101199.91;5028610;28;20048;-82
2023/12/07 09:21:08;;;;;;;36.28;19.27;;;3.30;99.90;;;3.73;100.00;101186.06;5037853;28;20049;-82
2023/12/07 09:23:35;;;;;;;33.60;17.52;;;3.30;99.90;;;3.70;100.00;101199.00;5041021;28;20029;-82
2023/12/07 09:26:01;;;;;;;32.45;18.27;;;3.30;99.90;;;3.56;100.00;101201.28;5034437;28;20073;-82
2023/12/07 09:28:26;;;;;;;31.75;17.83;;;3.30;99.90;;;3.68;100.00;101192.94;5031461;28;20044;-81
2023/12/07 09:30:52;;;;;;;34.35;18.02;;;3.30;99.90;;;3.66;100.00;101192.25;5026916;28;20121;-82
2023/12/07 09:33:19;;;;;;;29.38;17.88;;;3.40;99.90;;;3.58;100.00;101204.69;5037086;28;20139;-82
2023/12/07 09:35:44;;;;;;;31.27;17.45;;;3.40;99.90;;;3.81;100.00;101209.56;5030476;28;20091;-82
2023/12/07 09:38:10;;;;;;;31.10;17.05;;;3.40;99.90;;;3.65;100.00;101201.34;5032982;28;20033;-82
2023/12/07 09:40:36;;;;;;;29.80;17.00;;;3.40;99.90;;;3.79;100.00;101206.19;5033813;28;20465;-82
2023/12/07 09:43:02;;;;;;;32.95;18.60;;;3.40;99.90;;;3.62;100.00;101216.00;5029343;28;20045;-82
2023/12/07 09:45:29;;;;;;;30.58;17.30;;;3.40;99.90;;;3.68;100.00;101209.13;5024904;28;20034;-82
2023/12/07 09:47:55;;;;;;;31.55;17.63;;;3.40;99.90;;;3.69;100.00;101206.28;5032572;28;20108;-82
2023/12/07 09:50:27;;;;;;;29.35;17.60;;;3.40;99.90;;;3.73;100.00;101201.44;5037964;28;20038;-82
2023/12/07 09:52:56;;;;;;;34.40;18.25;;;3.40;99.90;;;3.61;100.00;101198.13;5026343;28;20034;-82
2023/12/07 09:55:23;;;;;;;28.85;18.10;;;3.40;99.90;;;3.73;100.00;101204.13;5032954;28;20037;-83
2023/12/07 09:57:49;;;;;;;29.70;16.67;;;3.40;99.90;;;3.70;100.00;101207.09;5041407;28;20071;-83
2023/12/07 10:00:15;;;;;;;29.63;17.58;;;3.40;99.90;;;3.73;100.00;101206.81;5032673;28;20115;-82
2023/12/07 10:02:42;;;;;;;29.02;17.30;;;3.40;99.90;;;3.77;100.00;101196.53;5022161;28;20485;-82